sensor_id;sensor_type;location;lat;lon;timestamp;temperature;humidity
75517;DHT22;64097;52.548;13.406;2023-07-24T06:01:22;25.90;53.60
75517;DHT22;64097;52.548;13.406;2023-07-24T06:03:48;25.90;53.50
75517;DHT22;64097;52.548;13.406;2023-07-24T06:06:13;25.90;53.50
75517;DHT22;64097;52.548;13.406;2023-07-24T06:08:39;26.00;53.60
75517;DHT22;64097;52.548;13.406;2023-07-24T06:11:05;26.00;53.60
75517;DHT22;64097;52.548;13.406;2023-07-24T06:13:31;26.00;53.60
75517;DHT22;64097;52.548;13.406;2023-07-24T06:15:56;26.00;53.50
75517;DHT22;64097;52.548;13.406;2023-07-24T06:18:22;26.10;53.40
75517;DHT22;64097;52.548;13.406;2023-07-24T06:20:51;26.10;53.30
75517;DHT22;64097;52.548;13.406;2023-07-24T06:23:17;26.10;53.20
75517;DHT22;64097;52.548;13.406;2023-07-24T06:25:42;26.20;53.10
75517;DHT22;64097;52.548;13.406;2023-07-24T06:28:08;26.20;52.90
75517;DHT22;64097;52.548;13.406;2023-07-24T06:30:34;26.30;52.80
75517;DHT22;64097;52.548;13.406;2023-07-24T06:32:59;26.30;52.70
75517;DHT22;64097;52.548;13.406;2023-07-24T06:35:25;26.30;52.50
75517;DHT22;64097;52.548;13.406;2023-07-24T06:37:51;26.30;52.40
75517;DHT22;64097;52.548;13.406;2023-07-24T06:40:16;26.30;52.30
75517;DHT22;64097;52.548;13.406;2023-07-24T06:42:42;26.40;52.20
75517;DHT22;64097;52.548;13.406;2023-07-24T06:45:08;26.40;52.90
75517;DHT22;64097;52.548;13.406;2023-07-24T06:47:34;26.40;52.10
75517;DHT22;64097;52.548;13.406;2023-07-24T06:49:59;26.50;52.10
75517;DHT22;64097;52.548;13.406;2023-07-24T06:52:25;26.50;51.90
75517;DHT22;64097;52.548;13.406;2023-07-24T06:54:51;26.50;51.80
75517;DHT22;64097;52.548;13.406;2023-07-24T06:57:16;26.60;51.80
75517;DHT22;64097;52.548;13.406;2023-07-24T06:59:42;26.60;51.60
75517;DHT22;64097;52.548;13.406;2023-07-24T07:02:08;26.60;51.60
75517;DHT22;64097;52.548;13.406;2023-07-24T07:04:33;26.70;51.50
75517;DHT22;64097;52.548;13.406;2023-07-24T07:06:59;26.70;51.40
75517;DHT22;64097;52.548;13.406;2023-07-24T07:09:25;26.70;51.20
75517;DHT22;64097;52.548;13.406;2023-07-24T07:11:50;26.80;51.20
75517;DHT22;64097;52.548;13.406;2023-07-24T07:14:16;26.80;51.10
75517;DHT22;64097;52.548;13.406;2023-07-24T07:16:42;26.80;51.10
75517;DHT22;64097;52.548;13.406;2023-07-24T07:19:07;26.80;51.00
75517;DHT22;64097;52.548;13.406;2023-07-24T07:21:34;26.80;51.00
75517;DHT22;64097;52.548;13.406;2023-07-24T07:24:00;26.90;50.90
75517;DHT22;64097;52.548;13.406;2023-07-24T07:26:26;26.90;50.80
75517;DHT22;64097;52.548;13.406;2023-07-24T07:28:52;27.00;50.60
75517;DHT22;64097;52.548;13.406;2023-07-24T07:31:18;27.00;50.40
75517;DHT22;64097;52.548;13.406;2023-07-24T07:33:43;27.00;50.20
75517;DHT22;64097;52.548;13.406;2023-07-24T07:36:09;27.00;50.20
75517;DHT22;64097;52.548;13.406;2023-07-24T07:38:35;27.10;50.20
75517;DHT22;64097;52.548;13.406;2023-07-24T07:41:04;27.20;50.20
75517;DHT22;64097;52.548;13.406;2023-07-24T07:43:30;27.20;50.00
75517;DHT22;64097;52.548;13.406;2023-07-24T07:45:56;27.20;49.90
75517;DHT22;64097;52.548;13.406;2023-07-24T07:48:22;27.30;49.60
75517;DHT22;64097;52.548;13.406;2023-07-24T07:50:51;27.30;49.50
75517;DHT22;64097;52.548;13.406;2023-07-24T07:53:17;27.30;49.30
75517;DHT22;64097;52.548;13.406;2023-07-24T07:55:42;27.40;49.40
75517;DHT22;64097;52.548;13.406;2023-07-24T07:58:08;27.40;49.20
75517;DHT22;64097;52.548;13.406;2023-07-24T08:00:34;27.40;49.10
75517;DHT22;64097;52.548;13.406;2023-07-24T08:03:00;27.40;49.00
75517;DHT22;64097;52.548;13.406;2023-07-24T08:05:26;27.50;49.00
75517;DHT22;64097;52.548;13.406;2023-07-24T08:07:51;27.60;49.00
75517;DHT22;64097;52.548;13.406;2023-07-24T08:10:17;27.60;48.80
75517;DHT22;64097;52.548;13.406;2023-07-24T08:12:44;27.60;48.70
75517;DHT22;64097;52.548;13.406;2023-07-24T08:15:09;27.70;48.60
75517;DHT22;64097;52.548;13.406;2023-07-24T08:17:35;27.70;48.50
75517;DHT22;64097;52.548;13.406;2023-07-24T08:20:01;27.80;48.30
75517;DHT22;64097;52.548;13.406;2023-07-24T08:22:27;27.80;48.10
75517;DHT22;64097;52.548;13.406;2023-07-24T08:24:53;27.90;48.10
75517;DHT22;64097;52.548;13.406;2023-07-24T08:27:19;28.00;48.10
75517;DHT22;64097;52.548;13.406;2023-07-24T08:29:45;28.00;48.00
75517;DHT22;64097;52.548;13.406;2023-07-24T08:32:11;28.10;47.90
75517;DHT22;64097;52.548;13.406;2023-07-24T08:34:36;28.10;47.50
75517;DHT22;64097;52.548;13.406;2023-07-24T08:37:02;28.20;47.40
75517;DHT22;64097;52.548;13.406;2023-07-24T08:39:28;28.20;47.10
75517;DHT22;64097;52.548;13.406;2023-07-24T08:41:53;28.20;46.90
75517;DHT22;64097;52.548;13.406;2023-07-24T08:44:20;28.30;46.80
75517;DHT22;64097;52.548;13.406;2023-07-24T08:46:47;28.30;47.30
75517;DHT22;64097;52.548;13.406;2023-07-24T08:49:15;28.40;46.40
75517;DHT22;64097;52.548;13.406;2023-07-24T08:51:41;28.40;46.30
75517;DHT22;64097;52.548;13.406;2023-07-24T08:54:08;28.40;46.40
75517;DHT22;64097;52.548;13.406;2023-07-24T08:56:36;28.40;46.40
75517;DHT22;64097;52.548;13.406;2023-07-24T08:59:03;28.40;46.10
75517;DHT22;64097;52.548;13.406;2023-07-24T09:01:29;28.50;46.20
75517;DHT22;64097;52.548;13.406;2023-07-24T09:03:56;28.50;46.10
75517;DHT22;64097;52.548;13.406;2023-07-24T09:06:21;28.50;46.00
75517;DHT22;64097;52.548;13.406;2023-07-24T09:08:48;28.50;45.80
75517;DHT22;64097;52.548;13.406;2023-07-24T09:11:14;28.60;45.80
75517;DHT22;64097;52.548;13.406;2023-07-24T09:13:43;28.60;45.70
75517;DHT22;64097;52.548;13.406;2023-07-24T09:16:20;28.60;45.80
75517;DHT22;64097;52.548;13.406;2023-07-24T09:18:46;28.60;45.70
75517;DHT22;64097;52.548;13.406;2023-07-24T09:21:11;28.70;46.30
75517;DHT22;64097;52.548;13.406;2023-07-24T09:23:40;28.70;45.60
75517;DHT22;64097;52.548;13.406;2023-07-24T09:26:07;28.70;45.60
75517;DHT22;64097;52.548;13.406;2023-07-24T09:28:34;28.80;45.70
75517;DHT22;64097;52.548;13.406;2023-07-24T09:31:00;28.80;45.80
75517;DHT22;64097;52.548;13.406;2023-07-24T09:33:35;28.80;45.90
75517;DHT22;64097;52.548;13.406;2023-07-24T09:36:03;28.90;45.80
75517;DHT22;64097;52.548;13.406;2023-07-24T09:38:29;28.90;45.50
75517;DHT22;64097;52.548;13.406;2023-07-24T09:40:56;29.00;45.40
75517;DHT22;64097;52.548;13.406;2023-07-24T09:43:25;29.00;45.20
75517;DHT22;64097;52.548;13.406;2023-07-24T09:45:53;29.10;45.30
75517;DHT22;64097;52.548;13.406;2023-07-24T09:48:20;29.10;45.30
75517;DHT22;64097;52.548;13.406;2023-07-24T09:50:49;29.10;45.20
75517;DHT22;64097;52.548;13.406;2023-07-24T09:53:19;29.20;45.20
75517;DHT22;64097;52.548;13.406;2023-07-24T09:55:57;29.20;45.00
75517;DHT22;64097;52.548;13.406;2023-07-24T09:58:24;29.30;44.90
75517;DHT22;64097;52.548;13.406;2023-07-24T10:00:52;29.30;44.80
75517;DHT22;64097;52.548;13.406;2023-07-24T10:03:18;29.40;44.80
75517;DHT22;64097;52.548;13.406;2023-07-24T10:05:46;29.40;44.70
75517;DHT22;64097;52.548;13.406;2023-07-24T10:08:12;29.50;44.60
75517;DHT22;64097;52.548;13.406;2023-07-24T10:10:39;29.50;44.10
75517;DHT22;64097;52.548;13.406;2023-07-24T10:13:06;29.50;43.70
75517;DHT22;64097;52.548;13.406;2023-07-24T10:15:32;29.50;43.40
75517;DHT22;64097;52.548;13.406;2023-07-24T10:18:03;29.60;43.30
75517;DHT22;64097;52.548;13.406;2023-07-24T10:20:34;29.50;43.00
75517;DHT22;64097;52.548;13.406;2023-07-24T10:23:01;29.60;42.90
75517;DHT22;64097;52.548;13.406;2023-07-24T10:25:32;29.50;42.60
75517;DHT22;64097;52.548;13.406;2023-07-24T10:28:03;29.50;42.80
75517;DHT22;64097;52.548;13.406;2023-07-24T10:30:36;29.50;42.90
75517;DHT22;64097;52.548;13.406;2023-07-24T10:33:19;29.50;43.10
75517;DHT22;64097;52.548;13.406;2023-07-24T10:35:51;29.50;43.30
75517;DHT22;64097;52.548;13.406;2023-07-24T10:38:17;29.50;42.90
75517;DHT22;64097;52.548;13.406;2023-07-24T10:40:47;29.50;42.80
75517;DHT22;64097;52.548;13.406;2023-07-24T10:43:19;29.60;42.90
75517;DHT22;64097;52.548;13.406;2023-07-24T10:45:48;29.60;43.00
75517;DHT22;64097;52.548;13.406;2023-07-24T10:48:15;29.60;43.00
75517;DHT22;64097;52.548;13.406;2023-07-24T10:50:43;29.70;42.50
75517;DHT22;64097;52.548;13.406;2023-07-24T10:53:10;29.70;42.20
75517;DHT22;64097;52.548;13.406;2023-07-24T10:55:36;29.80;42.10
75517;DHT22;64097;52.548;13.406;2023-07-24T10:58:02;29.80;41.80
75517;DHT22;64097;52.548;13.406;2023-07-24T11:00:28;29.80;41.80
75517;DHT22;64097;52.548;13.406;2023-07-24T11:02:55;29.90;42.30
75517;DHT22;64097;52.548;13.406;2023-07-24T11:05:24;29.90;41.40
75517;DHT22;64097;52.548;13.406;2023-07-24T11:07:50;29.90;41.30
75517;DHT22;64097;52.548;13.406;2023-07-24T11:10:20;30.00;41.40
75517;DHT22;64097;52.548;13.406;2023-07-24T11:12:46;30.10;41.10
75517;DHT22;64097;52.548;13.406;2023-07-24T11:15:13;30.10;40.60
75517;DHT22;64097;52.548;13.406;2023-07-24T11:17:40;30.20;40.50
75517;DHT22;64097;52.548;13.406;2023-07-24T11:20:16;30.30;40.50
75517;DHT22;64097;52.548;13.406;2023-07-24T11:22:43;30.20;39.70
75517;DHT22;64097;52.548;13.406;2023-07-24T11:25:12;30.30;39.80
75517;DHT22;64097;52.548;13.406;2023-07-24T11:27:41;30.30;39.60
75517;DHT22;64097;52.548;13.406;2023-07-24T11:30:10;30.30;39.40
75517;DHT22;64097;52.548;13.406;2023-07-24T11:32:39;30.30;39.50
75517;DHT22;64097;52.548;13.406;2023-07-24T11:35:05;30.20;39.30
75517;DHT22;64097;52.548;13.406;2023-07-24T11:37:31;30.30;39.40
75517;DHT22;64097;52.548;13.406;2023-07-24T11:40:02;30.20;39.10
75517;DHT22;64097;52.548;13.406;2023-07-24T11:42:30;30.20;39.00
75517;DHT22;64097;52.548;13.406;2023-07-24T11:44:59;30.30;39.00
75517;DHT22;64097;52.548;13.406;2023-07-24T11:47:26;30.30;39.20
75517;DHT22;64097;52.548;13.406;2023-07-24T11:50:01;30.30;39.30
75517;DHT22;64097;52.548;13.406;2023-07-24T11:52:43;30.30;39.30
75517;DHT22;64097;52.548;13.406;2023-07-24T11:55:30;30.40;39.40
75517;DHT22;64097;52.548;13.406;2023-07-24T11:57:58;30.40;39.30
75517;DHT22;64097;52.548;13.406;2023-07-24T12:00:24;30.40;39.10
75517;DHT22;64097;52.548;13.406;2023-07-24T12:02:50;30.40;38.90
75517;DHT22;64097;52.548;13.406;2023-07-24T12:05:16;30.40;38.90
75517;DHT22;64097;52.548;13.406;2023-07-24T12:07:43;30.40;38.80
75517;DHT22;64097;52.548;13.406;2023-07-24T12:10:10;30.50;38.70
75517;DHT22;64097;52.548;13.406;2023-07-24T12:12:43;30.50;38.50
75517;DHT22;64097;52.548;13.406;2023-07-24T12:15:09;30.40;38.30
75517;DHT22;64097;52.548;13.406;2023-07-24T12:17:35;30.40;38.30
75517;DHT22;64097;52.548;13.406;2023-07-24T12:20:02;30.30;38.30
75517;DHT22;64097;52.548;13.406;2023-07-24T12:22:29;30.30;38.40
75517;DHT22;64097;52.548;13.406;2023-07-24T12:24:56;30.20;40.00
75517;DHT22;64097;52.548;13.406;2023-07-24T12:27:21;30.20;42.30
75517;DHT22;64097;52.548;13.406;2023-07-24T12:29:47;30.10;43.30
75517;DHT22;64097;52.548;13.406;2023-07-24T12:32:13;30.00;44.20
75517;DHT22;64097;52.548;13.406;2023-07-24T12:34:38;29.90;44.70
75517;DHT22;64097;52.548;13.406;2023-07-24T12:37:04;29.80;45.30
75517;DHT22;64097;52.548;13.406;2023-07-24T12:39:30;29.70;45.70
75517;DHT22;64097;52.548;13.406;2023-07-24T12:41:55;29.60;45.90
75517;DHT22;64097;52.548;13.406;2023-07-24T12:44:21;29.50;46.30
75517;DHT22;64097;52.548;13.406;2023-07-24T12:46:47;29.40;46.50
75517;DHT22;64097;52.548;13.406;2023-07-24T12:49:13;29.30;46.70
75517;DHT22;64097;52.548;13.406;2023-07-24T12:51:39;29.30;46.90
75517;DHT22;64097;52.548;13.406;2023-07-24T12:54:04;29.30;47.00
75517;DHT22;64097;52.548;13.406;2023-07-24T12:56:30;29.30;47.40
75517;DHT22;64097;52.548;13.406;2023-07-24T12:58:56;29.30;47.50
75517;DHT22;64097;52.548;13.406;2023-07-24T13:01:21;29.30;47.50
75517;DHT22;64097;52.548;13.406;2023-07-24T13:03:47;29.30;47.70
75517;DHT22;64097;52.548;13.406;2023-07-24T13:06:13;29.30;47.60
75517;DHT22;64097;52.548;13.406;2023-07-24T13:08:38;29.30;47.70
75517;DHT22;64097;52.548;13.406;2023-07-24T13:11:04;29.30;47.90
75517;DHT22;64097;52.548;13.406;2023-07-24T13:13:30;29.30;48.10
75517;DHT22;64097;52.548;13.406;2023-07-24T13:15:56;29.30;48.40
75517;DHT22;64097;52.548;13.406;2023-07-24T13:18:22;29.20;48.50
75517;DHT22;64097;52.548;13.406;2023-07-24T13:20:47;29.20;48.70
75517;DHT22;64097;52.548;13.406;2023-07-24T13:23:13;29.20;48.70
75517;DHT22;64097;52.548;13.406;2023-07-24T13:25:39;29.20;48.50
75517;DHT22;64097;52.548;13.406;2023-07-24T13:28:04;29.10;48.50
75517;DHT22;64097;52.548;13.406;2023-07-24T13:30:30;29.20;49.00
75517;DHT22;64097;52.548;13.406;2023-07-24T13:32:56;29.10;49.40
75517;DHT22;64097;52.548;13.406;2023-07-24T13:35:21;29.10;49.60
75517;DHT22;64097;52.548;13.406;2023-07-24T13:37:47;29.10;50.00
75517;DHT22;64097;52.548;13.406;2023-07-24T13:40:13;29.10;50.20
75517;DHT22;64097;52.548;13.406;2023-07-24T13:42:38;29.00;50.30
75517;DHT22;64097;52.548;13.406;2023-07-24T13:45:04;29.00;50.50
75517;DHT22;64097;52.548;13.406;2023-07-24T13:47:30;29.00;50.40
75517;DHT22;64097;52.548;13.406;2023-07-24T13:49:56;29.10;50.60
75517;DHT22;64097;52.548;13.406;2023-07-24T13:52:21;29.10;50.70
75517;DHT22;64097;52.548;13.406;2023-07-24T13:54:47;29.10;50.60
75517;DHT22;64097;52.548;13.406;2023-07-24T13:57:13;29.10;50.40
75517;DHT22;64097;52.548;13.406;2023-07-24T13:59:39;29.10;50.20
